FHY68H LIRA-LYTV
Flight info
| Callsign | FHY68H |
|---|---|
| Flight time | 1h 1m |
| Altitude | 34000 |
| Route | PEMAR DCT ASPIR DCT RIVAM DCT KATTI/N0453F350 DCT TAZ |
| Aircraft | A320/M-SDE3FGHIRWY/LB1 |
Departure
| Time | 2026-05-03 21:27 |
|---|---|
| Airport | Ciampino–G. B. Pastine International Airport (LIRA) |
Arrival
| Time | 2026-05-03 22:28 |
|---|---|
| Airport | Tivat Airport (LYTV) |
| Time | Latitude | Longitude | Altitude | Speed | Heading |
|---|---|---|---|---|---|
| 2026-05-03 21:01 | 41.80038 | 12.58976 | 369 ft | 0 kts | 124° |
| 2026-05-03 21:14 | 41.80043 | 12.58967 | 368 ft | 2 kts | 124° |
| 2026-05-03 21:14 | 41.80056 | 12.58941 | 367 ft | 4 kts | 124° |
| 2026-05-03 21:14 | 41.80070 | 12.58916 | 366 ft | 1 kts | 109° |
| 2026-05-03 21:15 | 41.80067 | 12.58904 | 366 ft | 2 kts | 62° |
| 2026-05-03 21:15 | 41.80060 | 12.58887 | 366 ft | 1 kts | 54° |
| 2026-05-03 21:15 | 41.80056 | 12.58879 | 366 ft | 1 kts | 48° |
| 2026-05-03 21:15 | 41.80051 | 12.58864 | 366 ft | 2 kts | 71° |
| 2026-05-03 21:16 | 41.80045 | 12.58846 | 365 ft | 2 kts | 58° |
| 2026-05-03 21:16 | 41.80040 | 12.58836 | 365 ft | 1 kts | 51° |
| 2026-05-03 21:16 | 41.80037 | 12.58831 | 366 ft | 0 kts | 52° |
| 2026-05-03 21:20 | 41.80037 | 12.58832 | 365 ft | 0 kts | 52° |
| 2026-05-03 21:21 | 41.80045 | 12.58845 | 365 ft | 2 kts | 52° |
| 2026-05-03 21:21 | 41.80061 | 12.58873 | 365 ft | 4 kts | 53° |
| 2026-05-03 21:21 | 41.80062 | 12.58875 | 365 ft | 1 kts | 53° |
| 2026-05-03 21:21 | 41.80096 | 12.58934 | 365 ft | 13 kts | 53° |
| 2026-05-03 21:22 | 41.80151 | 12.59030 | 365 ft | 13 kts | 52° |
| 2026-05-03 21:22 | 41.80207 | 12.59088 | 364 ft | 11 kts | 359° |
| 2026-05-03 21:22 | 41.80291 | 12.59036 | 360 ft | 15 kts | 333° |
| 2026-05-03 21:22 | 41.80398 | 12.58962 | 355 ft | 18 kts | 333° |
| 2026-05-03 21:23 | 41.80519 | 12.58878 | 351 ft | 19 kts | 333° |
| 2026-05-03 21:23 | 41.80632 | 12.58801 | 347 ft | 9 kts | 333° |
| 2026-05-03 21:23 | 41.80692 | 12.58761 | 345 ft | 8 kts | 340° |
| 2026-05-03 21:23 | 41.80734 | 12.58779 | 345 ft | 0 kts | 62° |
| 2026-05-03 21:25 | 41.80734 | 12.58780 | 345 ft | 0 kts | 62° |
| 2026-05-03 21:25 | 41.80749 | 12.58817 | 345 ft | 8 kts | 61° |
| 2026-05-03 21:25 | 41.80759 | 12.58900 | 347 ft | 9 kts | 116° |
| 2026-05-03 21:25 | 41.80713 | 12.58947 | 349 ft | 2 kts | 153° |
| 2026-05-03 21:26 | 41.80711 | 12.58948 | 349 ft | 3 kts | 153° |
| 2026-05-03 21:26 | 41.80435 | 12.59138 | 358 ft | 86 kts | 153° |
| 2026-05-03 21:26 | 41.79675 | 12.59664 | 411 ft | 153 kts | 152° |
| 2026-05-03 21:26 | 41.78637 | 12.60374 | 840 ft | 175 kts | 155° |
| 2026-05-03 21:27 | 41.77570 | 12.61050 | 1732 ft | 174 kts | 158° |
| 2026-05-03 21:27 | 41.76411 | 12.61286 | 2522 ft | 175 kts | 193° |
| 2026-05-03 21:27 | 41.75274 | 12.60544 | 2997 ft | 192 kts | 216° |
| 2026-05-03 21:27 | 41.74398 | 12.59113 | 3518 ft | 209 kts | 246° |
| 2026-05-03 21:28 | 41.73893 | 12.57216 | 4101 ft | 226 kts | 253° |
| 2026-05-03 21:28 | 41.73431 | 12.55176 | 4882 ft | 233 kts | 252° |
| 2026-05-03 21:28 | 41.72948 | 12.53130 | 5805 ft | 234 kts | 251° |
| 2026-05-03 21:28 | 41.72443 | 12.51077 | 6719 ft | 235 kts | 251° |
| 2026-05-03 21:29 | 41.71766 | 12.49095 | 7533 ft | 238 kts | 233° |
| 2026-05-03 21:29 | 41.70583 | 12.47486 | 8123 ft | 252 kts | 219° |
| 2026-05-03 21:29 | 41.69154 | 12.46024 | 8773 ft | 268 kts | 217° |
| 2026-05-03 21:29 | 41.67658 | 12.44512 | 9564 ft | 273 kts | 212° |
| 2026-05-03 21:30 | 41.65875 | 12.43669 | 10412 ft | 276 kts | 184° |
| 2026-05-03 21:30 | 41.63992 | 12.44096 | 11202 ft | 280 kts | 154° |
| 2026-05-03 21:30 | 41.62472 | 12.45631 | 11977 ft | 283 kts | 129° |
| 2026-05-03 21:30 | 41.61609 | 12.47992 | 12660 ft | 288 kts | 99° |
| 2026-05-03 21:31 | 41.61700 | 12.50631 | 13425 ft | 290 kts | 73° |
| 2026-05-03 21:31 | 41.62626 | 12.53004 | 14163 ft | 293 kts | 52° |
| 2026-05-03 21:31 | 41.63940 | 12.55095 | 14921 ft | 296 kts | 48° |
| 2026-05-03 21:31 | 41.65311 | 12.57171 | 15642 ft | 300 kts | 49° |
| 2026-05-03 21:32 | 41.66660 | 12.59308 | 16316 ft | 305 kts | 50° |
| 2026-05-03 21:32 | 41.68005 | 12.61507 | 17013 ft | 309 kts | 50° |
| 2026-05-03 21:32 | 41.69180 | 12.63909 | 17678 ft | 314 kts | 66° |
| 2026-05-03 21:32 | 41.69738 | 12.66768 | 18177 ft | 325 kts | 83° |
| 2026-05-03 21:33 | 41.69915 | 12.69810 | 18488 ft | 340 kts | 86° |
| 2026-05-03 21:33 | 41.70081 | 12.73046 | 18836 ft | 354 kts | 85° |
| 2026-05-03 21:33 | 41.70305 | 12.76356 | 19179 ft | 367 kts | 83° |
| 2026-05-03 21:33 | 41.70943 | 12.79696 | 19468 ft | 377 kts | 62° |
| 2026-05-03 21:34 | 41.72560 | 12.82511 | 19750 ft | 386 kts | 39° |
| 2026-05-03 21:34 | 41.74872 | 12.84341 | 20022 ft | 393 kts | 18° |
| 2026-05-03 21:34 | 41.77579 | 12.85164 | 20447 ft | 398 kts | 8° |
| 2026-05-03 21:34 | 41.80273 | 12.85824 | 21076 ft | 400 kts | 8° |
| 2026-05-03 21:35 | 41.83049 | 12.86537 | 21643 ft | 403 kts | 9° |
| 2026-05-03 21:35 | 41.85775 | 12.87286 | 22198 ft | 405 kts | 9° |
| 2026-05-03 21:35 | 41.88567 | 12.88061 | 22698 ft | 408 kts | 9° |
| 2026-05-03 21:35 | 41.91349 | 12.88926 | 23310 ft | 408 kts | 11° |
| 2026-05-03 21:36 | 41.94110 | 12.89766 | 23722 ft | 413 kts | 9° |
| 2026-05-03 21:36 | 41.96953 | 12.90497 | 24158 ft | 417 kts | 8° |
| 2026-05-03 21:36 | 41.99745 | 12.91589 | 24635 ft | 425 kts | 23° |
| 2026-05-03 21:36 | 42.02167 | 12.93945 | 25138 ft | 434 kts | 43° |
| 2026-05-03 21:37 | 42.03905 | 12.97275 | 25620 ft | 443 kts | 61° |
| 2026-05-03 21:37 | 42.04865 | 13.01260 | 26060 ft | 452 kts | 75° |
| 2026-05-03 21:37 | 42.05522 | 13.05395 | 26435 ft | 454 kts | 72° |
| 2026-05-03 21:37 | 42.06317 | 13.09479 | 26850 ft | 456 kts | 71° |
| 2026-05-03 21:38 | 42.07154 | 13.13599 | 27275 ft | 457 kts | 71° |
| 2026-05-03 21:38 | 42.07991 | 13.17721 | 27680 ft | 459 kts | 71° |
| 2026-05-03 21:38 | 42.08823 | 13.21911 | 28074 ft | 461 kts | 71° |
| 2026-05-03 21:38 | 42.09627 | 13.26059 | 28449 ft | 463 kts | 71° |
| 2026-05-03 21:39 | 42.10439 | 13.30292 | 28800 ft | 465 kts | 71° |
| 2026-05-03 21:39 | 42.11268 | 13.34465 | 29024 ft | 470 kts | 71° |
| 2026-05-03 21:39 | 42.12125 | 13.38744 | 29278 ft | 473 kts | 70° |
| 2026-05-03 21:39 | 42.12971 | 13.43007 | 29643 ft | 474 kts | 71° |
| 2026-05-03 21:40 | 42.13815 | 13.47329 | 30117 ft | 472 kts | 71° |
| 2026-05-03 21:40 | 42.14637 | 13.51570 | 30554 ft | 471 kts | 71° |
| 2026-05-03 21:40 | 42.15462 | 13.55856 | 30989 ft | 470 kts | 71° |
| 2026-05-03 21:40 | 42.16277 | 13.60104 | 31412 ft | 469 kts | 70° |
| 2026-05-03 21:41 | 42.17091 | 13.64352 | 31781 ft | 469 kts | 70° |
| 2026-05-03 21:41 | 42.17894 | 13.68564 | 32133 ft | 469 kts | 71° |
| 2026-05-03 21:41 | 42.18699 | 13.72811 | 32489 ft | 469 kts | 71° |
| 2026-05-03 21:41 | 42.19430 | 13.77090 | 32790 ft | 471 kts | 72° |
| 2026-05-03 21:42 | 42.20139 | 13.81453 | 33067 ft | 472 kts | 72° |
| 2026-05-03 21:42 | 42.20832 | 13.85778 | 33347 ft | 473 kts | 73° |
| 2026-05-03 21:42 | 42.21525 | 13.90111 | 33592 ft | 474 kts | 72° |
| 2026-05-03 21:42 | 42.22217 | 13.94437 | 33861 ft | 474 kts | 72° |
| 2026-05-03 21:43 | 42.22910 | 13.98787 | 34092 ft | 474 kts | 72° |
| 2026-05-03 21:43 | 42.23611 | 14.03179 | 34121 ft | 476 kts | 72° |
| 2026-05-03 21:43 | 42.24991 | 14.11868 | 34135 ft | 476 kts | 72° |
| 2026-05-03 21:44 | 42.26373 | 14.20616 | 34127 ft | 475 kts | 72° |
| 2026-05-03 21:44 | 42.27751 | 14.29381 | 34117 ft | 475 kts | 72° |
| 2026-05-03 21:45 | 42.29109 | 14.38050 | 34119 ft | 476 kts | 72° |
| 2026-05-03 21:45 | 42.30466 | 14.46782 | 34112 ft | 475 kts | 72° |
| 2026-05-03 21:46 | 42.31819 | 14.55516 | 34104 ft | 474 kts | 72° |
| 2026-05-03 21:46 | 42.33156 | 14.64203 | 34093 ft | 472 kts | 71° |
| 2026-05-03 21:47 | 42.34482 | 14.72888 | 34096 ft | 471 kts | 72° |
| 2026-05-03 21:47 | 42.35802 | 14.81596 | 34089 ft | 471 kts | 72° |
| 2026-05-03 21:48 | 42.37107 | 14.90221 | 34084 ft | 471 kts | 72° |
| 2026-05-03 21:48 | 42.38408 | 14.98856 | 34081 ft | 470 kts | 72° |
| 2026-05-03 21:49 | 42.39700 | 15.07478 | 34081 ft | 469 kts | 72° |
| 2026-05-03 21:49 | 42.40998 | 15.16179 | 34083 ft | 469 kts | 72° |
| 2026-05-03 21:50 | 42.42276 | 15.24786 | 34084 ft | 470 kts | 72° |
| 2026-05-03 21:50 | 42.43559 | 15.33470 | 34089 ft | 470 kts | 72° |
| 2026-05-03 21:51 | 42.44830 | 15.42145 | 34084 ft | 469 kts | 72° |
| 2026-05-03 21:51 | 42.46092 | 15.50784 | 34087 ft | 469 kts | 72° |
| 2026-05-03 21:52 | 42.47345 | 15.59437 | 34089 ft | 469 kts | 72° |
| 2026-05-03 21:52 | 42.48598 | 15.68138 | 34089 ft | 470 kts | 73° |
| 2026-05-03 21:53 | 42.49714 | 15.76909 | 34082 ft | 473 kts | 77° |
| 2026-05-03 21:53 | 42.50193 | 15.85777 | 34086 ft | 473 kts | 82° |
| 2026-05-03 21:54 | 42.50460 | 15.94695 | 34083 ft | 471 kts | 82° |
| 2026-05-03 21:54 | 42.50656 | 16.03573 | 34085 ft | 473 kts | 85° |
| 2026-05-03 21:55 | 42.50258 | 16.12423 | 34084 ft | 473 kts | 90° |
| 2026-05-03 21:55 | 42.49618 | 16.21259 | 34085 ft | 471 kts | 90° |
| 2026-05-03 21:56 | 42.48974 | 16.30105 | 34083 ft | 471 kts | 90° |
| 2026-05-03 21:56 | 42.48331 | 16.38921 | 34085 ft | 471 kts | 90° |
| 2026-05-03 21:57 | 42.47684 | 16.47741 | 34081 ft | 471 kts | 89° |
| 2026-05-03 21:57 | 42.47033 | 16.56527 | 34084 ft | 471 kts | 89° |
| 2026-05-03 21:58 | 42.46373 | 16.65356 | 34088 ft | 471 kts | 90° |
| 2026-05-03 21:58 | 42.45711 | 16.74141 | 34085 ft | 471 kts | 90° |
| 2026-05-03 21:59 | 42.45037 | 16.82963 | 34085 ft | 470 kts | 90° |
| 2026-05-03 21:59 | 42.44358 | 16.91771 | 34086 ft | 470 kts | 90° |
| 2026-05-03 22:00 | 42.43676 | 17.00532 | 34086 ft | 470 kts | 90° |
| 2026-05-03 22:00 | 42.42984 | 17.09342 | 34083 ft | 470 kts | 90° |
| 2026-05-03 22:01 | 42.42290 | 17.18069 | 34083 ft | 470 kts | 90° |
| 2026-05-03 22:01 | 42.41584 | 17.26888 | 34083 ft | 470 kts | 90° |
| 2026-05-03 22:02 | 42.41228 | 17.31266 | 33827 ft | 468 kts | 90° |
| 2026-05-03 22:02 | 42.40899 | 17.35333 | 33135 ft | 470 kts | 90° |
| 2026-05-03 22:02 | 42.40541 | 17.39768 | 32164 ft | 474 kts | 90° |
| 2026-05-03 22:02 | 42.40183 | 17.44178 | 31211 ft | 477 kts | 90° |
| 2026-05-03 22:03 | 42.39818 | 17.48622 | 30294 ft | 478 kts | 90° |
| 2026-05-03 22:03 | 42.39453 | 17.53034 | 29351 ft | 479 kts | 91° |
| 2026-05-03 22:03 | 42.39077 | 17.57541 | 28476 ft | 478 kts | 91° |
| 2026-05-03 22:03 | 42.38708 | 17.61940 | 27829 ft | 471 kts | 91° |
| 2026-05-03 22:04 | 42.38335 | 17.66329 | 27352 ft | 461 kts | 91° |
| 2026-05-03 22:04 | 42.37976 | 17.70562 | 26871 ft | 454 kts | 92° |
| 2026-05-03 22:04 | 42.37622 | 17.74725 | 26385 ft | 447 kts | 91° |
| 2026-05-03 22:04 | 42.37267 | 17.78892 | 25897 ft | 440 kts | 92° |
| 2026-05-03 22:05 | 42.36917 | 17.82996 | 25409 ft | 434 kts | 92° |
| 2026-05-03 22:05 | 42.36575 | 17.86991 | 24932 ft | 429 kts | 91° |
| 2026-05-03 22:05 | 42.36232 | 17.90966 | 24451 ft | 424 kts | 91° |
| 2026-05-03 22:05 | 42.35894 | 17.94879 | 23980 ft | 419 kts | 91° |
| 2026-05-03 22:06 | 42.35555 | 17.98791 | 23500 ft | 415 kts | 92° |
| 2026-05-03 22:06 | 42.35221 | 18.02637 | 23026 ft | 411 kts | 91° |
| 2026-05-03 22:06 | 42.34885 | 18.06471 | 22561 ft | 407 kts | 92° |
| 2026-05-03 22:06 | 42.34556 | 18.10227 | 22095 ft | 404 kts | 91° |
| 2026-05-03 22:07 | 42.34226 | 18.13975 | 21627 ft | 400 kts | 92° |
| 2026-05-03 22:07 | 42.33897 | 18.17691 | 21149 ft | 397 kts | 91° |
| 2026-05-03 22:07 | 42.33569 | 18.21381 | 20678 ft | 393 kts | 91° |
| 2026-05-03 22:07 | 42.33244 | 18.25019 | 20222 ft | 390 kts | 91° |
| 2026-05-03 22:08 | 42.32920 | 18.28649 | 19759 ft | 386 kts | 91° |
| 2026-05-03 22:08 | 42.32602 | 18.32186 | 19300 ft | 383 kts | 91° |
| 2026-05-03 22:08 | 42.32283 | 18.35740 | 18825 ft | 380 kts | 91° |
| 2026-05-03 22:08 | 42.31962 | 18.39297 | 18356 ft | 377 kts | 92° |
| 2026-05-03 22:09 | 42.31645 | 18.42795 | 17905 ft | 374 kts | 92° |
| 2026-05-03 22:09 | 42.31330 | 18.46258 | 17467 ft | 372 kts | 92° |
| 2026-05-03 22:09 | 42.31014 | 18.49721 | 17001 ft | 369 kts | 92° |
| 2026-05-03 22:10 | 42.30391 | 18.56510 | 16099 ft | 364 kts | 92° |
| 2026-05-03 22:10 | 42.30077 | 18.59919 | 15706 ft | 362 kts | 92° |
| 2026-05-03 22:10 | 42.29767 | 18.63281 | 15134 ft | 360 kts | 92° |
| 2026-05-03 22:10 | 42.29458 | 18.66596 | 14742 ft | 357 kts | 92° |
| 2026-05-03 22:11 | 42.29150 | 18.69897 | 14302 ft | 355 kts | 92° |
| 2026-05-03 22:11 | 42.28840 | 18.73220 | 13810 ft | 353 kts | 92° |
| 2026-05-03 22:11 | 42.28531 | 18.76470 | 13381 ft | 351 kts | 94° |
| 2026-05-03 22:11 | 42.28012 | 18.79730 | 12884 ft | 352 kts | 101° |
| 2026-05-03 22:12 | 42.27192 | 18.82837 | 12429 ft | 354 kts | 109° |
| 2026-05-03 22:12 | 42.26149 | 18.85838 | 11944 ft | 353 kts | 111° |
| 2026-05-03 22:12 | 42.25058 | 18.88814 | 11509 ft | 351 kts | 112° |
| 2026-05-03 22:12 | 42.23983 | 18.91726 | 11244 ft | 340 kts | 112° |
| 2026-05-03 22:13 | 42.22960 | 18.94506 | 11164 ft | 326 kts | 111° |
| 2026-05-03 22:13 | 42.21982 | 18.97177 | 11057 ft | 312 kts | 111° |
| 2026-05-03 22:13 | 42.21031 | 18.99764 | 10972 ft | 299 kts | 113° |
| 2026-05-03 22:13 | 42.19830 | 19.02000 | 10871 ft | 295 kts | 129° |
| 2026-05-03 22:14 | 42.18201 | 19.03754 | 10539 ft | 298 kts | 142° |
| 2026-05-03 22:14 | 42.16466 | 19.05257 | 10222 ft | 297 kts | 144° |
| 2026-05-03 22:14 | 42.14703 | 19.06739 | 9900 ft | 295 kts | 144° |
| 2026-05-03 22:14 | 42.12981 | 19.08204 | 9588 ft | 293 kts | 143° |
| 2026-05-03 22:15 | 42.11274 | 19.09678 | 9277 ft | 291 kts | 143° |
| 2026-05-03 22:15 | 42.09574 | 19.11121 | 9031 ft | 286 kts | 149° |
| 2026-05-03 22:15 | 42.07680 | 19.11783 | 8996 ft | 276 kts | 184° |
| 2026-05-03 22:15 | 42.05917 | 19.10993 | 8839 ft | 266 kts | 219° |
| 2026-05-03 22:16 | 42.04777 | 19.09136 | 8514 ft | 258 kts | 250° |
| 2026-05-03 22:16 | 42.04180 | 19.06881 | 8242 ft | 254 kts | 256° |
| 2026-05-03 22:16 | 42.03628 | 19.04634 | 7990 ft | 253 kts | 255° |
| 2026-05-03 22:16 | 42.03035 | 19.02384 | 7694 ft | 252 kts | 254° |
| 2026-05-03 22:17 | 42.02424 | 19.00195 | 7415 ft | 251 kts | 253° |
| 2026-05-03 22:17 | 42.01809 | 18.98012 | 7123 ft | 250 kts | 256° |
| 2026-05-03 22:17 | 42.01678 | 18.95764 | 6803 ft | 240 kts | 288° |
| 2026-05-03 22:17 | 42.02424 | 18.93826 | 6509 ft | 231 kts | 316° |
| 2026-05-03 22:18 | 42.03346 | 18.92868 | 6309 ft | 227 kts | 335° |
| 2026-05-03 22:18 | 42.03441 | 18.92804 | 6290 ft | 227 kts | 337° |
| 2026-05-03 22:18 | 42.04909 | 18.92044 | 6039 ft | 224 kts | 341° |
| 2026-05-03 22:18 | 42.06359 | 18.91325 | 5782 ft | 223 kts | 340° |
| 2026-05-03 22:19 | 42.07817 | 18.90591 | 5541 ft | 220 kts | 340° |
| 2026-05-03 22:19 | 42.09237 | 18.89867 | 5345 ft | 215 kts | 340° |
| 2026-05-03 22:19 | 42.10612 | 18.89163 | 5080 ft | 208 kts | 341° |
| 2026-05-03 22:19 | 42.11934 | 18.88485 | 4842 ft | 196 kts | 341° |
| 2026-05-03 22:20 | 42.13137 | 18.87865 | 4668 ft | 172 kts | 341° |
| 2026-05-03 22:20 | 42.14191 | 18.87319 | 4428 ft | 154 kts | 341° |
| 2026-05-03 22:20 | 42.15136 | 18.86831 | 4216 ft | 138 kts | 342° |
| 2026-05-03 22:20 | 42.16036 | 18.86370 | 4065 ft | 136 kts | 340° |
| 2026-05-03 22:21 | 42.16928 | 18.85911 | 3921 ft | 136 kts | 343° |
| 2026-05-03 22:21 | 42.17842 | 18.85857 | 3731 ft | 132 kts | 24° |
| 2026-05-03 22:21 | 42.18636 | 18.86485 | 3735 ft | 133 kts | 33° |
| 2026-05-03 22:21 | 42.19501 | 18.86846 | 3668 ft | 135 kts | 353° |
| 2026-05-03 22:22 | 42.20261 | 18.86135 | 3572 ft | 139 kts | 300° |
| 2026-05-03 22:22 | 42.20579 | 18.84885 | 3539 ft | 144 kts | 282° |
| 2026-05-03 22:22 | 42.21077 | 18.83749 | 3391 ft | 140 kts | 324° |
| 2026-05-03 22:22 | 42.21941 | 18.83199 | 3213 ft | 136 kts | 348° |
| 2026-05-03 22:23 | 42.22842 | 18.82824 | 3138 ft | 136 kts | 343° |
| 2026-05-03 22:23 | 42.23721 | 18.82368 | 3059 ft | 135 kts | 342° |
| 2026-05-03 22:23 | 42.24612 | 18.81891 | 2988 ft | 136 kts | 342° |
| 2026-05-03 22:23 | 42.25496 | 18.81423 | 2925 ft | 137 kts | 343° |
| 2026-05-03 22:24 | 42.26392 | 18.80963 | 2792 ft | 138 kts | 343° |
| 2026-05-03 22:24 | 42.27290 | 18.80499 | 2599 ft | 138 kts | 343° |
| 2026-05-03 22:24 | 42.28178 | 18.80038 | 2420 ft | 137 kts | 343° |
| 2026-05-03 22:24 | 42.29064 | 18.79574 | 2247 ft | 136 kts | 341° |
| 2026-05-03 22:25 | 42.29957 | 18.79149 | 2080 ft | 135 kts | 343° |
| 2026-05-03 22:25 | 42.30858 | 18.78748 | 1935 ft | 135 kts | 346° |
| 2026-05-03 22:25 | 42.31769 | 18.78431 | 1802 ft | 133 kts | 351° |
| 2026-05-03 22:25 | 42.32657 | 18.78081 | 1630 ft | 134 kts | 341° |
| 2026-05-03 22:26 | 42.33541 | 18.77643 | 1462 ft | 133 kts | 347° |
| 2026-05-03 22:26 | 42.34430 | 18.77310 | 1265 ft | 132 kts | 348° |
| 2026-05-03 22:26 | 42.35320 | 18.76974 | 1073 ft | 133 kts | 344° |
| 2026-05-03 22:26 | 42.36179 | 18.76537 | 932 ft | 133 kts | 341° |
| 2026-05-03 22:27 | 42.37045 | 18.76053 | 731 ft | 133 kts | 338° |
| 2026-05-03 22:27 | 42.37851 | 18.75413 | 532 ft | 134 kts | 321° |
| 2026-05-03 22:27 | 42.38540 | 18.74571 | 344 ft | 133 kts | 320° |
| 2026-05-03 22:27 | 42.39253 | 18.73751 | 174 ft | 133 kts | 318° |
| 2026-05-03 22:28 | 42.39952 | 18.72933 | 6 ft | 131 kts | 319° |
| 2026-05-03 22:28 | 42.40434 | 18.72365 | 8 ft | 53 kts | 319° |
| 2026-05-03 22:28 | 42.40621 | 18.72145 | 7 ft | 30 kts | 319° |
| 2026-05-03 22:28 | 42.40772 | 18.71967 | 6 ft | 28 kts | 317° |
| 2026-05-03 22:29 | 42.40902 | 18.71814 | 3 ft | 14 kts | 321° |
| 2026-05-03 22:29 | 42.40966 | 18.71809 | 3 ft | 9 kts | 40° |
| 2026-05-03 22:29 | 42.41001 | 18.71849 | 4 ft | 0 kts | 15° |
| 2026-05-03 22:31 | 42.41016 | 18.71850 | 4 ft | 5 kts | 353° |
| 2026-05-03 22:31 | 42.41062 | 18.71807 | 3 ft | 10 kts | 319° |
| 2026-05-03 22:31 | 42.41110 | 18.71755 | 2 ft | 3 kts | 351° |
| 2026-05-03 22:32 | 42.41122 | 18.71764 | 2 ft | 2 kts | 42° |
| 2026-05-03 22:32 | 42.41132 | 18.71778 | 2 ft | 2 kts | 54° |
| 2026-05-03 22:32 | 42.41130 | 18.71792 | 2 ft | 2 kts | 126° |
| 2026-05-03 22:32 | 42.41122 | 18.71795 | 3 ft | 0 kts | 196° |
| 2026-05-03 22:33 | 42.41119 | 18.71795 | 3 ft | 1 kts | 178° |
| 2026-05-03 22:33 | 42.41118 | 18.71795 | 3 ft | 0 kts | 174° |